Time;durP1;ratioP1;P1;durP2;ratioP2;P2;SDS_P1;SDS_P2;PMS_P1;PMS_P2;Temp;Humidity;BMP_temperature;BMP_pressure;BME280_temperature;BME280_humidity;BME280_pressure;Samples;Min_cycle;Max_cycle;Signal;HPM_P1;HPM_P2
2022/08/16 00:02:05;;;;;;;14.57;7.50;;;;;;;22.18;69.08;99525.14;124222;1099;104288;-75
2022/08/16 00:04:35;;;;;;;15.93;8.70;;;;;;;22.16;69.96;99526.98;124224;1099;104460;-76
2022/08/16 00:07:04;;;;;;;18.47;9.20;;;;;;;22.16;69.35;99535.00;124188;1102;104366;-75
2022/08/16 00:09:33;;;;;;;14.87;8.37;;;;;;;22.15;69.83;99537.72;124158;1102;104168;-75
2022/08/16 00:12:02;;;;;;;15.90;8.33;;;;;;;22.16;69.59;99537.67;124240;1102;104211;-75
2022/08/16 00:14:32;;;;;;;14.63;8.03;;;;;;;22.14;70.45;99543.97;124271;1102;104284;-75
2022/08/16 00:17:01;;;;;;;16.47;8.13;;;;;;;22.08;70.60;99550.38;124235;1099;108345;-74
2022/08/16 00:19:32;;;;;;;14.67;8.00;;;;;;;21.99;70.32;99546.14;124249;1099;104265;-75
2022/08/16 00:22:01;;;;;;;16.70;8.03;;;;;;;21.98;70.55;99548.84;124197;1099;104377;-75
2022/08/16 00:24:32;;;;;;;17.27;8.60;;;;;;;22.01;70.43;99549.63;124172;1099;102976;-75
2022/08/16 00:27:02;;;;;;;15.93;8.30;;;;;;;22.03;70.78;99541.58;124286;1099;104288;-75
2022/08/16 00:29:31;;;;;;;16.27;8.20;;;;;;;22.03;70.59;99547.82;124233;1101;104546;-76
2022/08/16 00:32:05;;;;;;;19.60;8.73;;;;;;;22.07;71.58;99556.63;124236;1101;104778;-75
2022/08/16 00:34:33;;;;;;;;;;;;;;;22.06;70.34;99553.08;124186;1102;104188;-76
2022/08/16 00:37:02;;;;;;;18.00;8.37;;;;;;;22.08;71.30;99561.05;124232;1102;104284;-75
2022/08/16 00:39:31;;;;;;;15.20;8.60;;;;;;;22.11;71.80;99552.06;124206;1102;104368;-75
2022/08/16 00:42:00;;;;;;;14.80;8.53;;;;;;;22.13;71.62;99559.13;124200;1102;102993;-75
2022/08/16 00:44:29;;;;;;;19.83;8.67;;;;;;;22.15;71.86;99567.10;124222;1102;104927;-76
2022/08/16 00:47:04;;;;;;;16.80;9.17;;;;;;;22.15;72.20;99557.28;124210;1100;103002;-75
2022/08/16 00:49:33;;;;;;;18.45;8.85;;;;;;;22.15;72.18;99565.30;124251;1100;104345;-75
2022/08/16 00:52:03;;;;;;;15.43;8.97;;;;;;;22.13;72.44;99561.80;124188;1102;104319;-75
2022/08/16 00:54:32;;;;;;;18.13;8.83;;;;;;;22.08;71.74;99566.40;124202;1100;104387;-76
2022/08/16 00:57:02;;;;;;;16.80;9.13;;;;;;;21.98;72.22;99564.88;124189;1102;103121;-75
2022/08/16 00:59:38;;;;;;;16.87;8.97;;;;;;;21.88;72.79;99567.78;124886;1099;104342;-75
2022/08/16 01:02:20;;;;;;;16.40;9.40;;;;;;;21.84;72.85;99573.23;124772;1099;104284;-76
2022/08/16 01:04:49;;;;;;;19.10;9.20;;;;;;;21.78;72.46;99584.94;124251;1102;104433;-75
2022/08/16 01:07:17;;;;;;;18.50;10.00;;;;;;;21.73;73.41;99574.37;124232;1102;104245;-75
2022/08/16 01:09:46;;;;;;;20.80;9.60;;;;;;;21.76;72.93;99576.09;124283;1102;102864;-75
2022/08/16 01:12:18;;;;;;;16.43;9.23;;;;;;;21.81;73.86;99582.19;124291;1102;104926;-75
2022/08/16 01:14:53;;;;;;;16.65;8.95;;;;;;;21.85;73.36;99580.34;124246;1102;104220;-76
2022/08/16 01:17:23;;;;;;;17.43;9.33;;;;;;;21.83;73.74;99580.38;124234;1099;104211;-75
2022/08/16 01:19:55;;;;;;;16.87;8.87;;;;;;;21.80;73.96;99591.14;124174;1099;104501;-75
2022/08/16 01:22:32;;;;;;;15.10;8.63;;;;;;;21.74;74.13;99591.29;124278;1099;104517;-75
2022/08/16 01:25:06;;;;;;;17.37;9.13;;;;;;;21.70;73.76;99592.27;124208;1099;104288;-75
2022/08/16 01:27:36;;;;;;;;;;;;;;;21.64;74.25;99590.61;124256;1102;104348;-75
2022/08/16 01:30:11;;;;;;;18.83;8.60;;;;;;;21.65;73.54;99592.38;124264;1102;103032;-75
2022/08/16 01:32:41;;;;;;;16.93;8.53;;;;;;;21.64;74.56;99598.63;124230;1102;104339;-75
2022/08/16 01:35:15;;;;;;;17.57;9.03;;;;;;;21.54;75.18;99600.64;124217;1102;102983;-75
2022/08/16 01:37:47;;;;;;;19.03;8.17;;;;;;;21.44;75.40;99615.10;124291;1103;104384;-75
2022/08/16 01:40:20;;;;;;;15.00;8.00;;;;;;;21.34;75.24;99618.88;124219;1102;104160;-75
2022/08/16 01:42:50;;;;;;;19.73;8.58;;;;;;;21.23;75.14;99618.25;124243;1099;104266;-75
2022/08/16 01:45:20;;;;;;;16.57;8.27;;;;;;;21.12;75.40;99624.69;124169;1102;103002;-78
2022/08/16 01:47:51;;;;;;;14.97;7.80;;;;;;;21.05;74.96;99622.17;124252;1102;102026;-75
2022/08/16 01:50:22;;;;;;;16.23;7.67;;;;;;;20.97;74.97;99622.34;124161;1102;102600;-75
2022/08/16 01:52:51;;;;;;;15.20;7.77;;;;;;;20.93;76.44;99632.20;124193;1102;104182;-75
2022/08/16 01:55:44;;;;;;;16.00;7.60;;;;;;;20.87;74.92;99636.80;124166;1102;104296;-75
2022/08/16 01:58:17;;;;;;;15.20;7.50;;;;;;;20.80;75.89;99636.91;124197;1102;104172;-75
2022/08/16 02:00:46;;;;;;;15.40;7.65;;;;;;;20.74;76.33;99644.13;124197;1102;104156;-76
2022/08/16 02:03:15;;;;;;;15.73;8.03;;;;;;;20.69;77.21;99646.89;124261;1102;102829;-75
2022/08/16 02:05:46;;;;;;;16.17;7.90;;;;;;;20.66;77.41;99652.28;124153;1102;104345;-75
2022/08/16 02:08:14;;;;;;;16.03;8.30;;;;;;;20.61;77.37;99640.80;124242;1102;104337;-75
2022/08/16 02:10:43;;;;;;;15.97;8.20;;;;;;;20.57;76.88;99639.09;124203;1102;104705;-75
2022/08/16 02:13:13;;;;;;;18.03;8.17;;;;;;;20.55;77.75;99640.92;124166;1102;104211;-75
2022/08/16 02:15:42;;;;;;;17.93;8.57;;;;;;;20.54;77.84;99644.52;124263;1102;104418;-75
2022/08/16 02:18:11;;;;;;;16.07;8.60;;;;;;;20.50;78.41;99645.47;124152;1102;104204;-75
2022/08/16 02:20:42;;;;;;;16.13;8.40;;;;;;;20.49;78.33;99644.59;124252;1102;104342;-75
2022/08/16 02:23:11;;;;;;;16.40;8.27;;;;;;;20.47;77.79;99644.63;124239;1099;104157;-75
2022/08/16 02:25:40;;;;;;;17.27;8.00;;;;;;;20.50;78.69;99658.79;124254;1099;104641;-75
2022/08/16 02:28:09;;;;;;;16.55;7.50;;;;;;;20.48;78.11;99656.16;124252;1099;104172;-75
2022/08/16 02:30:38;;;;;;;15.70;8.40;;;;;;;20.50;78.39;99656.13;124245;1102;104705;-75
2022/08/16 02:33:08;;;;;;;13.90;7.20;;;;;;;20.45;78.83;99654.41;124211;1102;104399;-74
2022/08/16 02:35:38;;;;;;;17.30;7.20;;;;;;;20.42;79.01;99653.59;124175;1102;104176;-76
2022/08/16 02:38:07;;;;;;;11.83;6.67;;;;;;;20.39;78.03;99657.19;124790;1099;104166;-75
2022/08/16 02:40:36;;;;;;;12.00;6.60;;;;;;;20.35;77.80;99659.93;124769;1099;103057;-74
2022/08/16 02:43:06;;;;;;;11.23;6.23;;;;;;;20.33;78.14;99659.95;124709;1099;104226;-74
2022/08/16 02:45:35;;;;;;;14.20;6.67;;;;;;;20.32;78.07;99655.55;124679;1099;102273;-74
2022/08/16 02:48:05;;;;;;;17.23;7.20;;;;;;;20.34;78.19;99651.06;124668;1099;104076;-75
2022/08/16 02:50:34;;;;;;;13.57;6.93;;;;;;;20.38;78.55;99650.13;124810;1099;102785;-75
2022/08/16 02:53:03;;;;;;;12.63;7.00;;;;;;;20.41;78.58;99655.39;124672;1099;104635;-75
2022/08/16 02:55:32;;;;;;;13.33;6.30;;;;;;;20.49;77.81;99657.92;124819;1099;103210;-74
2022/08/16 02:58:01;;;;;;;17.53;7.33;;;;;;;20.57;78.46;99649.75;124779;1099;101947;-76
2022/08/16 03:00:30;;;;;;;14.43;6.97;;;;;;;20.55;77.95;99646.25;124744;1099;104220;-75
2022/08/16 03:02:59;;;;;;;14.77;7.33;;;;;;;20.54;78.08;99650.70;124751;1098;104156;-74
2022/08/16 03:05:27;;;;;;;14.77;6.73;;;;;;;20.57;78.74;99639.09;124745;1099;104179;-75
2022/08/16 03:07:57;;;;;;;13.30;6.07;;;;;;;20.62;78.32;99634.58;124713;1099;102182;-75
2022/08/16 03:10:26;;;;;;;13.27;6.10;;;;;;;20.71;78.69;99630.86;124671;1099;118512;-75
2022/08/16 03:12:55;;;;;;;15.70;6.50;;;;;;;20.76;78.74;99618.34;124755;1099;104054;-75
2022/08/16 03:15:25;;;;;;;11.57;6.10;;;;;;;20.78;77.89;99614.72;124820;1099;104246;-75
2022/08/16 03:17:54;;;;;;;11.23;6.03;;;;;;;20.80;77.85;99610.25;124690;1099;104364;-75
2022/08/16 03:20:25;;;;;;;11.30;6.60;;;;;;;20.82;78.13;99603.09;124735;1099;104331;-75
2022/08/16 03:22:54;;;;;;;13.50;6.60;;;;;;;20.81;78.90;99617.32;124738;1099;104322;-75
2022/08/16 03:25:23;;;;;;;13.10;6.40;;;;;;;20.78;78.28;99611.19;124690;1099;104159;-74
2022/08/16 03:28:01;;;;;;;13.43;6.30;;;;;;;20.77;78.03;99609.41;124735;1099;102819;-75
2022/08/16 03:30:32;;;;;;;12.47;6.60;;;;;;;20.78;78.50;99613.84;124678;1098;104283;-74
2022/08/16 03:33:04;;;;;;;11.83;6.47;;;;;;;20.84;78.68;99621.72;124721;1099;102226;-75
2022/08/16 03:35:41;;;;;;;15.33;6.20;;;;;;;20.91;78.89;99619.80;124763;1098;104192;-76
2022/08/16 03:38:22;;;;;;;12.80;6.50;;;;;;;21.01;78.40;99626.71;124700;1099;104069;-76
2022/08/16 03:40:53;;;;;;;12.17;6.23;;;;;;;21.04;78.43;99625.78;124748;1099;104204;-76
2022/08/16 03:43:24;;;;;;;12.77;6.70;;;;;;;21.05;78.57;99630.18;124605;1099;104309;-76
2022/08/16 03:45:56;;;;;;;12.80;6.47;;;;;;;21.08;78.13;99619.45;124676;1099;102724;-76
2022/08/16 03:48:50;;;;;;;15.75;6.50;;;;;;;21.13;78.27;99623.78;124771;1099;104641;-76
2022/08/16 03:51:25;;;;;;;11.67;6.10;;;;;;;21.21;77.98;99620.05;124861;1099;106563;-76
2022/08/16 03:53:57;;;;;;;12.07;6.67;;;;;;;21.24;78.30;99625.31;124327;1099;104207;-76
2022/08/16 03:56:26;;;;;;;13.33;7.10;;;;;;;21.30;78.29;99622.52;124731;1099;104608;-75
2022/08/16 03:58:56;;;;;;;14.17;6.60;;;;;;;21.35;77.72;99623.31;124266;1099;104267;-76
2022/08/16 04:01:26;;;;;;;12.70;6.93;;;;;;;21.41;77.89;99628.52;124272;1099;104313;-76
2022/08/16 04:03:55;;;;;;;15.37;6.90;;;;;;;21.48;78.49;99621.23;124263;1099;104256;-76
2022/08/16 04:06:24;;;;;;;13.20;7.20;;;;;;;21.51;78.22;99624.73;124290;1099;102874;-76
2022/08/16 04:08:53;;;;;;;13.80;6.67;;;;;;;21.51;77.69;99626.53;124359;1099;102884;-76
2022/08/16 04:11:22;;;;;;;11.50;6.70;;;;;;;21.46;78.05;99629.28;124795;1099;104275;-76
2022/08/16 04:13:51;;;;;;;11.70;6.90;;;;;;;21.44;78.17;99631.11;124806;1099;104198;-76
2022/08/16 04:16:22;;;;;;;16.53;6.77;;;;;;;21.42;78.15;99622.24;124254;1102;104227;-76
2022/08/16 04:18:51;;;;;;;12.53;6.67;;;;;;;21.40;77.97;99624.08;124338;1102;104201;-77
2022/08/16 04:21:20;;;;;;;13.63;7.03;;;;;;;21.39;78.11;99629.45;124760;1099;102826;-76
2022/08/16 04:23:49;;;;;;;16.95;7.90;;;;;;;21.40;78.00;99625.88;124799;1099;104175;-76
2022/08/16 04:26:17;;;;;;;16.00;7.20;;;;;;;21.38;78.04;99620.58;124273;1102;104242;-75
2022/08/16 04:28:46;;;;;;;14.23;6.87;;;;;;;21.39;78.45;99629.45;124215;1102;104376;-76
2022/08/16 04:31:16;;;;;;;15.07;6.77;;;;;;;21.44;77.73;99627.55;124243;1102;102617;-75
2022/08/16 04:33:45;;;;;;;14.50;7.30;;;;;;;21.49;78.28;99626.57;124195;1102;102880;-76
2022/08/16 04:36:14;;;;;;;13.17;6.70;;;;;;;21.53;77.31;99630.03;124240;1102;102835;-75
2022/08/16 04:38:43;;;;;;;13.00;6.50;;;;;;;21.52;78.41;99631.84;124004;1102;102478;-76
2022/08/16 04:41:12;;;;;;;13.50;6.93;;;;;;;21.54;78.53;99629.14;124096;1102;102789;-75
2022/08/16 04:43:41;;;;;;;13.30;7.10;;;;;;;21.56;78.53;99626.43;124052;1102;104290;-76
2022/08/16 04:46:15;;;;;;;14.17;7.13;;;;;;;21.58;78.20;99621.92;123995;1102;102787;-76
2022/08/16 04:48:45;;;;;;;16.03;7.23;;;;;;;21.59;78.00;99621.02;124218;1102;104179;-75
2022/08/16 04:51:14;;;;;;;13.07;6.57;;;;;;;21.62;77.93;99611.14;124167;1102;102859;-75
2022/08/16 04:53:45;;;;;;;14.20;7.40;;;;;;;21.66;78.22;99606.59;124107;1102;102834;-75
2022/08/16 04:56:17;;;;;;;13.83;7.03;;;;;;;21.68;77.55;99605.66;124023;1102;104399;-75
2022/08/16 04:58:46;;;;;;;15.57;7.40;;;;;;;21.71;78.48;99599.38;124195;1102;104297;-75
2022/08/16 05:01:16;;;;;;;13.53;7.27;;;;;;;21.75;78.41;99594.83;124179;1102;104405;-75
2022/08/16 05:03:48;;;;;;;16.20;7.40;;;;;;;21.79;77.51;99592.05;124186;1102;104935;-76
2022/08/16 05:06:18;;;;;;;15.37;7.67;;;;;;;21.84;77.75;99589.26;124192;1102;104252;-75
2022/08/16 05:08:47;;;;;;;15.20;8.23;;;;;;;21.88;77.88;99589.14;124189;1102;104229;-76
2022/08/16 05:11:21;;;;;;;14.17;8.30;;;;;;;21.94;78.04;99585.45;124189;1099;102061;-76
2022/08/16 05:13:51;;;;;;;14.83;8.13;;;;;;;22.00;78.10;99581.73;124289;1098;104220;-76
2022/08/16 05:16:27;;;;;;;15.97;7.53;;;;;;;22.07;78.14;99586.00;124721;1099;104210;-75
2022/08/16 05:19:05;;;;;;;17.73;8.33;;;;;;;22.14;78.30;99582.23;124343;1099;104162;-76
2022/08/16 05:21:37;;;;;;;;;;;;;;;22.17;77.72;99587.49;124254;1099;104249;-76
2022/08/16 05:24:06;;;;;;;19.70;9.33;;;;;;;22.22;77.77;99585.60;124205;1099;104246;-75
2022/08/16 05:26:36;;;;;;;23.40;10.70;;;;;;;22.29;78.14;99593.45;124319;1099;102317;-75
2022/08/16 05:29:06;;;;;;;20.27;11.07;;;;;;;22.32;77.82;99588.92;124374;1100;102766;-76
2022/08/16 05:31:36;;;;;;;23.50;11.53;;;;;;;22.35;78.05;99593.33;124685;1099;104290;-77
2022/08/16 05:34:07;;;;;;;19.03;11.50;;;;;;;22.40;77.34;99592.26;124255;1102;104217;-75
2022/08/16 05:36:37;;;;;;;21.80;11.27;;;;;;;22.46;77.32;99596.57;124706;1099;102357;-75
2022/08/16 05:39:25;;;;;;;19.75;11.05;;;;;;;22.54;77.50;99599.90;124289;1099;104360;-75
2022/08/16 05:42:18;;;;;;;20.70;11.23;;;;;;;22.61;77.84;99596.14;124254;1102;104206;-75
2022/08/16 05:44:48;;;;;;;21.37;11.67;;;;;;;22.68;77.71;99593.30;124260;1102;104169;-76
2022/08/16 05:47:18;;;;;;;19.77;10.70;;;;;;;22.75;77.13;99600.20;124290;1102;102810;-75
2022/08/16 05:49:54;;;;;;;20.83;10.90;;;;;;;22.81;77.35;99602.70;124404;1099;102510;-77
2022/08/16 05:52:26;;;;;;;17.37;10.40;;;;;;;22.92;77.06;99605.97;124378;1099;102007;-77
2022/08/16 05:54:56;;;;;;;21.10;10.27;;;;;;;22.98;76.72;99602.22;124334;1099;102595;-78
2022/08/16 05:57:27;;;;;;;19.70;10.13;;;;;;;23.04;77.22;99607.38;124345;1102;104402;-78
2022/08/16 05:59:56;;;;;;;17.93;9.37;;;;;;;23.12;76.83;99600.05;125109;1099;104213;-76
2022/08/16 06:02:30;;;;;;;17.07;8.70;;;;;;;23.18;76.63;99607.00;124337;1099;104229;-76
2022/08/16 06:05:00;;;;;;;16.00;8.13;;;;;;;23.26;76.39;99604.95;124817;1099;102893;-77
2022/08/16 06:07:37;;;;;;;17.07;8.70;;;;;;;23.30;76.19;99606.63;124398;1099;105085;-77
2022/08/16 06:10:12;;;;;;;18.50;7.87;;;;;;;23.35;76.06;99606.48;124384;1102;104326;-78
2022/08/16 06:12:48;;;;;;;21.17;8.53;;;;;;;23.39;76.07;99604.58;125105;1102;104291;-78
2022/08/16 06:15:22;;;;;;;15.03;8.50;;;;;;;23.42;75.89;99602.70;124774;1098;102142;-77
2022/08/16 06:17:52;;;;;;;14.30;7.57;;;;;;;23.46;75.88;99608.83;124336;1099;104223;-78
2022/08/16 06:20:26;;;;;;;17.02;8.08;;;;;;;23.49;75.65;99609.59;124421;1102;102842;-78
2022/08/16 06:23:00;;;;;;;15.00;8.13;;;;;;;23.53;74.98;99606.83;124674;1099;104357;-77
2022/08/16 06:25:39;;;;;;;15.98;8.23;;;;;;;23.59;75.62;99618.23;124378;1099;104240;-78
2022/08/16 06:28:11;;;;;;;17.05;8.50;;;;;;;23.64;75.26;99621.63;124374;1099;102804;-77
2022/08/16 06:30:42;;;;;;;19.65;8.40;;;;;;;23.70;75.10;99617.89;124274;1102;104408;-77
2022/08/16 06:33:12;;;;;;;14.50;8.27;;;;;;;23.77;75.07;99610.53;124243;1102;104226;-77
2022/08/16 06:35:43;;;;;;;17.03;8.67;;;;;;;23.85;74.67;99611.17;124079;1102;104366;-76
2022/08/16 06:38:15;;;;;;;15.57;8.03;;;;;;;23.94;74.67;99610.00;124076;1102;104242;-76
2022/08/16 06:40:51;;;;;;;18.60;7.97;;;;;;;24.01;74.60;99608.84;124018;1105;102066;-76
2022/08/16 06:43:28;;;;;;;16.60;8.40;;;;;;;24.08;74.23;99612.22;123964;1105;104430;-76
2022/08/16 06:46:20;;;;;;;18.60;8.47;;;;;;;24.10;73.32;99615.71;124714;1105;104482;-77
2022/08/16 06:48:53;;;;;;;15.73;8.67;;;;;;;24.14;73.05;99607.52;124690;1105;102588;-78
2022/08/16 06:51:24;;;;;;;15.47;8.40;;;;;;;24.21;73.60;99605.48;124775;1105;104364;-78
2022/08/16 06:54:17;;;;;;;14.73;8.13;;;;;;;24.31;73.29;99606.93;124777;1105;102382;-78
2022/08/16 06:57:18;;;;;;;14.50;7.63;;;;;;;24.43;72.86;99604.73;124781;1105;104221;-78
2022/08/16 07:00:10;;;;;;;17.57;8.63;;;;;;;24.50;72.71;99603.60;124850;1106;103085;-79
2022/08/16 07:02:53;;;;;;;18.57;7.57;;;;;;;24.55;72.08;99601.62;125470;1102;104214;-78
2022/08/16 07:05:35;;;;;;;16.70;7.77;;;;;;;24.65;71.71;99596.81;125083;1102;104173;-79
2022/08/16 07:08:15;;;;;;;13.17;7.93;;;;;;;24.79;71.57;99604.36;124970;1105;103251;-79
2022/08/16 07:10:54;;;;;;;18.30;8.63;;;;;;;24.90;71.08;99605.72;125603;1102;103745;-79
2022/08/16 07:13:53;;;;;;;18.23;8.27;;;;;;;25.03;70.99;99605.26;125131;1102;102866;-79
2022/08/16 07:16:37;;;;;;;17.07;8.93;;;;;;;25.15;70.44;99601.20;125091;1102;104348;-77
2022/08/16 07:19:15;;;;;;;20.83;9.63;;;;;;;25.26;70.43;99609.73;125188;1099;104326;-79
2022/08/16 07:22:05;;;;;;;16.10;8.40;;;;;;;25.35;70.13;99598.64;125140;1101;101834;-79
2022/08/16 07:24:40;;;;;;;20.33;8.80;;;;;;;25.48;70.24;99594.55;125607;1102;102348;-79
2022/08/16 07:27:11;;;;;;;17.10;9.63;;;;;;;25.61;70.02;99599.42;125064;1102;102390;-79
2022/08/16 07:29:47;;;;;;;19.03;9.33;;;;;;;25.71;69.75;99594.53;125292;1102;104229;-80
2022/08/16 07:35:18;;;;;;;17.30;9.27;;;;;;;25.96;67.94;99600.65;125371;1102;104604;-78
2022/08/16 07:37:51;;;;;;;20.43;11.33;;;;;;;26.04;68.34;99591.41;125126;1102;102436;-78
2022/08/16 07:40:54;;;;;;;24.10;11.13;;;;;;;26.11;68.14;99583.01;125124;1102;102183;-78
2022/08/16 07:43:36;;;;;;;22.53;11.40;;;;;;;26.17;68.21;99582.75;125111;1102;104294;-79
2022/08/16 07:46:17;;;;;;;21.40;9.87;;;;;;;26.31;67.54;99586.66;125574;1102;102618;-78
2022/08/16 07:48:59;;;;;;;20.37;10.87;;;;;;;26.40;67.07;99583.56;125105;1102;104232;-78
2022/08/16 07:51:42;;;;;;;20.40;11.27;;;;;;;26.50;66.83;99586.71;125074;1102;104210;-77
2022/08/16 07:54:16;;;;;;;18.23;10.27;;;;;;;26.57;66.98;99576.54;125043;1102;103569;-77
2022/08/16 07:57:12;;;;;;;21.90;10.53;;;;;;;26.75;66.92;99580.26;125030;1102;106607;-78
2022/08/16 08:00:02;;;;;;;17.50;10.20;;;;;;;26.91;66.20;99589.35;125034;1102;101834;-77
2022/08/16 08:02:37;;;;;;;21.40;9.50;;;;;;;27.01;65.62;99584.44;125059;1102;102393;-79
2022/08/16 08:05:21;;;;;;;23.17;9.93;;;;;;;27.13;65.67;99582.97;124999;1102;103623;-78
2022/08/16 08:11:27;;;;;;;19.47;10.37;;;;;;;27.28;64.50;99587.63;124813;1102;104339;-78
2022/08/16 08:14:03;;;;;;;19.80;10.33;;;;;;;27.37;64.49;99580.97;125061;1102;104378;-78
2022/08/16 08:16:38;;;;;;;20.13;10.63;;;;;;;27.37;64.30;99589.05;124974;1102;104803;-78
2022/08/16 08:19:11;;;;;;;;;;;;;;;27.35;62.98;99590.95;124993;1102;104233;-77
2022/08/16 08:21:46;;;;;;;19.50;10.90;;;;;;;27.37;63.26;99592.60;124965;1101;102389;-78
2022/08/16 08:24:23;;;;;;;18.95;10.20;;;;;;;27.44;63.01;99593.17;124995;1102;104246;-78
2022/08/16 08:27:02;;;;;;;19.77;10.90;;;;;;;27.43;62.81;99600.39;124878;1102;104217;-77
2022/08/16 08:29:46;;;;;;;19.30;10.73;;;;;;;27.48;63.30;99593.92;125033;1102;104157;-77
2022/08/16 08:32:23;;;;;;;17.20;10.17;;;;;;;27.57;62.84;99594.33;124817;1103;104402;-79
2022/08/16 08:34:58;;;;;;;20.53;10.47;;;;;;;27.72;62.75;99595.41;124851;1102;102849;-78
2022/08/16 08:37:33;;;;;;;19.67;10.27;;;;;;;27.81;62.59;99602.14;125415;1105;107598;-77
2022/08/16 08:40:05;;;;;;;19.50;10.30;;;;;;;27.85;62.09;99608.27;124829;1105;102054;-77
2022/08/16 08:42:45;;;;;;;21.60;11.30;;;;;;;27.92;61.96;99615.95;125005;1102;102570;-77
2022/08/16 08:45:16;;;;;;;23.47;11.70;;;;;;;28.05;62.14;99613.56;124934;1102;104210;-77
2022/08/16 08:48:07;;;;;;;19.67;10.63;;;;;;;28.21;61.92;99613.64;124998;1102;119778;-77
2022/08/16 08:50:41;;;;;;;17.60;10.87;;;;;;;28.39;61.63;99608.23;125487;1102;102974;-77
2022/08/16 08:53:20;;;;;;;18.27;10.67;;;;;;;28.52;61.22;99603.95;125101;1102;104270;-77
2022/08/16 08:55:58;;;;;;;18.03;10.47;;;;;;;28.71;61.37;99601.16;125121;1098;104243;-78
2022/08/16 08:58:33;;;;;;;20.53;10.80;;;;;;;28.88;60.76;99602.09;127075;1098;101810;-78
2022/08/16 09:01:16;;;;;;;19.87;10.77;;;;;;;28.93;60.34;99591.91;125123;1099;103037;-78
2022/08/16 09:03:49;;;;;;;19.50;10.77;;;;;;;28.97;59.66;99598.89;125069;1099;102916;-78
2022/08/16 09:06:24;;;;;;;19.57;11.10;;;;;;;29.05;59.79;99592.09;125642;1098;104232;-79
2022/08/16 09:09:10;;;;;;;18.47;11.07;;;;;;;29.11;59.89;99595.40;125098;1099;104214;-78
2022/08/16 09:11:58;;;;;;;17.97;10.43;;;;;;;29.14;58.96;99588.02;125612;1099;104108;-78
2022/08/16 09:14:37;;;;;;;19.30;10.83;;;;;;;29.11;58.10;99590.00;125200;1099;102184;-79
2022/08/16 09:17:37;;;;;;;20.73;11.00;;;;;;;29.09;57.92;99591.92;125606;1099;104057;-78
2022/08/16 09:20:28;;;;;;;18.43;10.37;;;;;;;29.13;58.32;99586.27;125217;1102;104384;-78
2022/08/16 09:26:24;;;;;;;21.00;10.73;;;;;;;29.60;57.68;99573.73;125695;1099;104288;-79
2022/08/16 09:29:28;;;;;;;19.00;10.35;;;;;;;29.74;57.45;99571.09;125173;1099;121865;-78
2022/08/16 09:32:26;;;;;;;19.03;10.57;;;;;;;29.83;56.91;99561.61;125687;1099;104329;-78
2022/08/16 09:35:12;;;;;;;25.03;10.40;;;;;;;29.89;57.09;99557.69;125699;1099;104159;-78
2022/08/16 09:37:43;;;;;;;19.60;11.23;;;;;;;29.81;55.24;99554.55;124914;1102;102305;-77
2022/08/16 09:40:13;;;;;;;20.13;11.07;;;;;;;29.89;55.87;99544.17;125648;1099;104169;-78
2022/08/16 09:42:52;;;;;;;22.13;11.23;;;;;;;29.98;55.94;99543.62;125075;1100;104310;-77
2022/08/16 09:45:29;;;;;;;20.10;11.27;;;;;;;29.81;55.16;99552.73;125560;1099;104163;-78
2022/08/16 09:47:59;;;;;;;21.17;12.00;;;;;;;29.66;55.47;99556.30;125649;1099;102319;-79
2022/08/16 09:50:31;;;;;;;18.87;11.47;;;;;;;29.50;55.19;99565.30;125284;1099;102261;-78
2022/08/16 09:53:03;;;;;;;20.37;11.40;;;;;;;29.36;55.59;99573.34;125749;1098;104155;-78
2022/08/16 09:55:42;;;;;;;21.43;11.03;;;;;;;29.22;55.70;99585.78;124998;1102;104363;-79
2022/08/16 09:58:23;;;;;;;19.23;11.47;;;;;;;29.06;55.58;99584.84;125013;1102;104355;-79
2022/08/16 10:00:57;;;;;;;23.20;12.00;;;;;;;28.92;55.47;99582.05;125019;1102;102901;-79
2022/08/16 10:03:56;;;;;;;22.87;12.57;;;;;;;28.78;56.29;99590.91;124967;1102;104322;-80
2022/08/16 10:06:26;;;;;;;23.23;12.97;;;;;;;28.52;57.23;99609.34;124319;1102;104230;-78
2022/08/16 10:08:55;;;;;;;26.40;14.33;;;;;;;28.05;57.91;99624.34;124325;1102;102689;-76
2022/08/16 10:14:13;;;;;;;29.00;16.77;;;;;;;26.92;59.57;99634.18;124624;1099;104240;-75
2022/08/16 10:16:44;;;;;;;28.93;16.00;;;;;;;26.51;60.45;99639.58;124406;1099;102458;-77
2022/08/16 10:19:17;;;;;;;26.70;14.23;;;;;;;26.19;60.81;99628.38;124360;1099;104222;-74
2022/08/16 10:21:48;;;;;;;23.87;14.17;;;;;;;25.88;61.33;99613.51;124400;1099;104382;-74
2022/08/16 10:24:18;;;;;;;24.63;15.10;;;;;;;25.65;61.59;99617.17;124741;1099;104105;-74
2022/08/16 10:26:47;;;;;;;24.50;14.40;;;;;;;25.41;62.92;99616.33;124854;1099;104229;-76
2022/08/16 10:29:18;;;;;;;22.30;14.50;;;;;;;25.11;62.41;99606.69;124794;1098;102454;-76
2022/08/16 10:31:47;;;;;;;24.57;13.90;;;;;;;24.98;62.89;99605.43;124807;1099;104225;-76
2022/08/16 10:34:16;;;;;;;21.73;14.37;;;;;;;24.84;63.82;99587.17;124801;1099;104197;-75
2022/08/16 10:36:47;;;;;;;23.57;13.80;;;;;;;24.74;63.90;99588.43;124735;1099;104711;-75
2022/08/16 10:39:16;;;;;;;21.83;13.33;;;;;;;24.66;64.22;99604.80;124737;1099;104357;-76
2022/08/16 10:41:46;;;;;;;23.43;14.13;;;;;;;24.59;64.96;99616.71;124292;1099;102610;-76
2022/08/16 10:44:17;;;;;;;24.57;12.80;;;;;;;24.55;65.13;99613.20;124343;1099;103359;-76
2022/08/16 10:46:50;;;;;;;20.37;11.80;;;;;;;24.49;65.45;99600.02;124316;1099;103156;-76
2022/08/16 10:49:22;;;;;;;21.90;13.10;;;;;;;24.44;65.51;99598.45;124716;1099;102918;-76
2022/08/16 10:52:01;;;;;;;19.40;10.73;;;;;;;24.38;65.58;99613.81;124797;1099;104290;-76
2022/08/16 10:57:40;;;;;;;20.05;10.60;;;;;;;24.20;66.35;99625.20;124765;1099;101889;-76
2022/08/16 11:00:21;;;;;;;19.30;9.93;;;;;;;24.14;66.48;99641.48;124397;1099;104172;-76
2022/08/16 11:02:51;;;;;;;20.33;10.47;;;;;;;24.04;66.77;99649.84;125019;1099;104287;-77
2022/08/16 11:05:32;;;;;;;19.00;9.83;;;;;;;23.91;67.09;99663.69;125128;1099;102913;-76
2022/08/16 11:08:21;;;;;;;18.03;10.10;;;;;;;23.76;67.13;99683.76;124778;1099;104204;-76
2022/08/16 11:10:52;;;;;;;17.07;9.63;;;;;;;23.62;67.31;99676.16;124788;1099;102655;-76
2022/08/16 11:13:25;;;;;;;16.40;9.73;;;;;;;23.55;67.67;99666.58;124732;1099;104269;-76
2022/08/16 11:16:04;;;;;;;;;;;;;;;23.49;67.48;99673.86;125297;1099;104188;-77
2022/08/16 11:21:42;;;;;;;19.87;11.53;;;;;;;23.43;68.04;99700.81;124765;1099;102810;-77
2022/08/16 11:24:13;;;;;;;21.83;9.90;;;;;;;23.35;68.52;99728.75;124721;1099;102935;-76
2022/08/16 11:26:42;;;;;;;19.00;10.00;;;;;;;23.25;68.05;99733.47;124740;1099;104149;-76
2022/08/16 11:29:11;;;;;;;18.10;9.27;;;;;;;23.09;68.84;99730.36;124673;1099;104159;-76
2022/08/16 11:31:45;;;;;;;21.10;9.63;;;;;;;22.93;68.71;99728.07;124712;1099;104236;-77
2022/08/16 11:34:15;;;;;;;18.03;9.60;;;;;;;22.75;69.60;99717.87;124357;1099;104239;-76
2022/08/16 11:36:58;;;;;;;19.87;9.83;;;;;;;22.51;71.28;99714.93;124714;1099;102810;-75
2022/08/16 11:39:32;;;;;;;17.97;9.17;;;;;;;22.22;70.45;99721.88;124270;1099;104227;-76
2022/08/16 11:42:06;;;;;;;18.23;9.63;;;;;;;22.01;70.39;99714.38;124649;1099;102416;-75
2022/08/16 11:44:37;;;;;;;21.77;9.03;;;;;;;21.99;70.92;99716.22;124819;1098;102174;-77
2022/08/16 11:47:10;;;;;;;18.33;9.27;;;;;;;21.97;70.99;99708.23;124652;1099;104271;-75
2022/08/16 11:49:41;;;;;;;21.27;10.50;;;;;;;21.94;70.89;99694.05;124777;1099;104185;-76
2022/08/16 11:52:17;;;;;;;16.20;9.13;;;;;;;21.87;71.59;99691.53;124748;1099;104172;-75
2022/08/16 11:54:47;;;;;;;17.67;8.93;;;;;;;21.76;71.44;99669.55;124271;1099;104233;-76
2022/08/16 11:57:18;;;;;;;16.23;8.87;;;;;;;21.76;72.05;99645.52;124786;1099;104366;-74